createdAt,value
2023-05-02T00:02:20.797Z,16.68
2023-05-02T00:04:47.995Z,16.66
2023-05-02T00:07:17.334Z,16.39
2023-05-02T00:09:44.488Z,16.67
2023-05-02T00:12:11.542Z,16.59
2023-05-02T00:14:38.602Z,16.67
2023-05-02T00:17:13.975Z,16.58
2023-05-02T00:19:41.223Z,16.64
2023-05-02T00:22:11.586Z,16.28
2023-05-02T00:24:39.216Z,15.72
2023-05-02T00:27:06.987Z,15.97
2023-05-02T00:29:34.332Z,15.99
2023-05-02T00:32:01.667Z,15.87
2023-05-02T00:34:32.465Z,15.98
2023-05-02T00:36:59.986Z,15.74
2023-05-02T00:39:29.468Z,15.89
2023-05-02T00:42:02.680Z,15.97
2023-05-02T00:44:31.358Z,15.60
2023-05-02T00:47:01.828Z,15.48
2023-05-02T00:49:28.967Z,15.39
2023-05-02T00:51:56.150Z,15.85
2023-05-02T00:54:23.657Z,15.32
2023-05-02T00:56:50.884Z,15.82
2023-05-02T00:59:18.736Z,15.36
2023-05-02T01:02:36.716Z,16.04
2023-05-02T01:05:21.101Z,15.99
2023-05-02T01:08:30.851Z,16.04
2023-05-02T01:11:57.262Z,16.15
2023-05-02T01:14:30.974Z,16.12
2023-05-02T01:17:04.192Z,16.10
2023-05-02T01:19:44.732Z,15.93
2023-05-02T01:22:14.394Z,15.85
2023-05-02T01:25:52.894Z,15.75
2023-05-02T01:29:04.769Z,15.50
2023-05-02T01:31:50.302Z,15.61
2023-05-02T01:34:21.360Z,15.36
2023-05-02T01:36:51.936Z,15.41
2023-05-02T01:39:22.943Z,15.66
2023-05-02T01:41:53.387Z,15.63
2023-05-02T01:44:24.242Z,15.88
2023-05-02T01:46:55.248Z,15.84
2023-05-02T01:49:25.425Z,15.93
2023-05-02T01:51:53.281Z,15.82
2023-05-02T01:54:24.154Z,15.98
2023-05-02T01:56:52.858Z,15.98
2023-05-02T01:59:23.795Z,16.01
2023-05-02T02:01:52.400Z,15.79
2023-05-02T02:04:22.059Z,16.04
2023-05-02T02:07:06.663Z,15.47
2023-05-02T02:09:34.219Z,15.38
2023-05-02T02:12:07.547Z,15.19
2023-05-02T02:14:38.734Z,15.60
2023-05-02T02:17:32.285Z,15.24
2023-05-02T02:20:05.487Z,15.28
2023-05-02T02:22:38.951Z,15.23
2023-05-02T02:25:14.369Z,15.04
2023-05-02T02:27:42.166Z,15.25
2023-05-02T02:30:10.546Z,15.00
2023-05-02T02:32:37.910Z,14.95
2023-05-02T02:35:07.061Z,14.62
2023-05-02T02:38:06.583Z,14.77
2023-05-02T02:40:55.197Z,14.89
2023-05-02T02:43:44.520Z,14.95
2023-05-02T02:46:45.086Z,14.79
2023-05-02T02:49:51.165Z,14.64
2023-05-02T02:53:06.236Z,14.92
2023-05-02T02:56:05.068Z,14.67
2023-05-02T02:59:35.540Z,14.68
2023-05-02T03:02:09.392Z,14.61
2023-05-02T03:04:44.925Z,14.68
2023-05-02T03:07:12.600Z,14.69
2023-05-02T03:09:48.445Z,14.38
2023-05-02T03:12:15.779Z,14.51
2023-05-02T03:14:43.678Z,14.27
2023-05-02T03:17:11.157Z,14.39
2023-05-02T03:19:38.320Z,14.90
2023-05-02T03:22:05.921Z,14.63
2023-05-02T03:24:33.040Z,14.08
2023-05-02T03:27:00.308Z,14.01
2023-05-02T03:29:28.682Z,14.14
2023-05-02T03:31:55.848Z,14.33
2023-05-02T03:34:23.523Z,14.53
2023-05-02T03:36:51.043Z,14.50
2023-05-02T03:39:18.224Z,14.55
2023-05-02T03:41:47.163Z,14.47
2023-05-02T03:44:14.482Z,14.77
2023-05-02T03:46:41.939Z,14.65
2023-05-02T03:49:09.453Z,14.41
2023-05-02T03:51:36.531Z,14.05
2023-05-02T03:54:04.083Z,14.44
2023-05-02T03:56:31.325Z,14.25
2023-05-02T03:58:59.816Z,13.70
2023-05-02T04:01:26.912Z,13.77
2023-05-02T04:03:54.069Z,14.07
2023-05-02T04:06:21.475Z,13.39
2023-05-02T04:08:49.898Z,13.71
2023-05-02T04:11:17.098Z,13.47
2023-05-02T04:13:47.302Z,14.01
2023-05-02T04:16:14.357Z,13.98
2023-05-02T04:18:41.605Z,13.43
2023-05-02T04:21:11.884Z,14.21
2023-05-02T04:23:39.444Z,14.22
2023-05-02T04:26:06.697Z,14.42
2023-05-02T04:28:36.278Z,14.93
2023-05-02T04:31:06.645Z,14.45
2023-05-02T04:33:33.877Z,14.09
2023-05-02T04:36:01.173Z,13.73
2023-05-02T04:38:28.227Z,14.56
2023-05-02T04:40:55.546Z,14.88
2023-05-02T04:43:24.597Z,14.96
2023-05-02T04:45:52.074Z,14.64
2023-05-02T04:48:19.239Z,14.83
2023-05-02T04:50:46.998Z,14.78
2023-05-02T04:53:15.056Z,14.59
2023-05-02T04:55:48.168Z,14.73
2023-05-02T04:58:24.762Z,14.75
2023-05-02T05:00:54.989Z,15.01
2023-05-02T05:03:22.458Z,15.35
2023-05-02T05:05:49.531Z,15.46
2023-05-02T05:08:16.793Z,15.31
2023-05-02T05:10:44.105Z,15.51
2023-05-02T05:13:12.567Z,15.71
2023-05-02T05:15:40.248Z,15.45
2023-05-02T05:18:07.587Z,15.49
2023-05-02T05:20:34.812Z,14.99
2023-05-02T05:23:02.346Z,15.70
2023-05-02T05:25:34.158Z,15.94
2023-05-02T05:28:01.623Z,16.11
2023-05-02T05:30:30.837Z,15.84
2023-05-02T05:33:01.285Z,15.66
2023-05-02T05:35:28.508Z,15.83
2023-05-02T05:37:55.625Z,14.89
2023-05-02T05:40:22.853Z,15.16
2023-05-02T05:42:49.965Z,15.24
2023-05-02T05:45:19.517Z,15.69
2023-05-02T05:47:46.713Z,15.76
2023-05-02T05:50:13.868Z,16.10
2023-05-02T05:52:41.356Z,16.32
2023-05-02T05:55:14.595Z,16.46
2023-05-02T05:57:42.299Z,16.70
2023-05-02T06:00:13.387Z,15.58
2023-05-02T06:02:40.555Z,16.50
2023-05-02T06:05:08.471Z,15.70
2023-05-02T06:07:35.646Z,15.95
2023-05-02T06:10:03.146Z,15.43
2023-05-02T06:12:31.473Z,16.12
2023-05-02T06:14:58.655Z,15.24
2023-05-02T06:17:26.859Z,15.07
2023-05-02T06:19:54.750Z,15.53
2023-05-02T06:22:21.793Z,15.92
2023-05-02T06:24:48.839Z,16.76
2023-05-02T06:27:16.444Z,16.80
2023-05-02T06:29:45.798Z,16.00
2023-05-02T06:32:13.056Z,15.84
2023-05-02T06:34:40.131Z,16.47
2023-05-02T06:37:07.281Z,16.64
2023-05-02T06:39:34.406Z,16.44
2023-05-02T06:42:01.578Z,16.36
2023-05-02T06:44:28.822Z,16.63
2023-05-02T06:46:56.321Z,15.50
2023-05-02T06:49:23.789Z,16.74
2023-05-02T06:51:50.836Z,15.82
2023-05-02T06:54:18.044Z,16.63
2023-05-02T06:56:45.400Z,17.06
2023-05-02T06:59:12.652Z,16.86
2023-05-02T07:01:39.822Z,17.09
2023-05-02T07:04:07.044Z,16.54
2023-05-02T07:06:34.239Z,17.52
2023-05-02T07:09:01.325Z,17.42
2023-05-02T07:11:28.514Z,17.02
2023-05-02T07:13:55.577Z,17.00
2023-05-02T07:16:22.757Z,17.15
2023-05-02T07:18:49.875Z,16.22
2023-05-02T07:21:19.083Z,16.64
2023-05-02T07:23:46.516Z,17.05
2023-05-02T07:26:13.723Z,17.84
2023-05-02T07:28:41.042Z,18.15
2023-05-02T07:31:08.196Z,17.35
2023-05-02T07:33:35.324Z,17.37
2023-05-02T07:36:03.231Z,17.29
2023-05-02T07:38:30.387Z,17.39
2023-05-02T07:41:01.028Z,18.13
2023-05-02T07:43:28.698Z,17.50
2023-05-02T07:45:56.485Z,17.53
2023-05-02T07:48:26.080Z,17.64
2023-05-02T07:50:57.055Z,18.15
2023-05-02T07:53:27.425Z,17.97
2023-05-02T07:55:54.476Z,18.67
2023-05-02T07:58:21.570Z,19.47
2023-05-02T08:00:48.843Z,19.54
2023-05-02T08:03:16.184Z,19.15
2023-05-02T08:05:43.716Z,19.91
2023-05-02T08:08:10.808Z,19.15
2023-05-02T08:10:37.901Z,19.14
2023-05-02T08:13:04.944Z,18.55
2023-05-02T08:15:34.019Z,18.04
2023-05-02T08:18:01.235Z,18.44
2023-05-02T08:20:28.505Z,19.18
2023-05-02T08:22:56.568Z,18.85
2023-05-02T08:25:25.080Z,18.06
2023-05-02T08:27:52.356Z,18.61
2023-05-02T08:30:19.645Z,18.64
2023-05-02T08:32:48.350Z,18.77
2023-05-02T08:35:15.595Z,17.78
2023-05-02T08:37:43.667Z,17.87
2023-05-02T08:40:14.165Z,18.27
2023-05-02T08:42:44.772Z,18.08
2023-05-02T08:45:16.564Z,18.69
2023-05-02T08:47:44.681Z,18.20
2023-05-02T08:50:12.108Z,18.84
2023-05-02T08:52:39.752Z,18.86
2023-05-02T08:55:08.064Z,19.32
2023-05-02T08:57:37.309Z,18.79
2023-05-02T09:00:05.573Z,18.81
2023-05-02T09:03:01.800Z,18.51
2023-05-02T09:05:33.487Z,19.00
2023-05-02T09:08:00.667Z,18.35
2023-05-02T09:10:30.841Z,18.33
2023-05-02T09:12:57.925Z,18.25
2023-05-02T09:15:25.333Z,18.86
2023-05-02T09:17:52.591Z,19.04
2023-05-02T09:20:19.703Z,18.25
2023-05-02T09:22:53.728Z,17.65
2023-05-02T09:25:21.535Z,17.60
2023-05-02T09:27:57.003Z,18.04
2023-05-02T09:30:26.571Z,17.42
2023-05-02T09:32:55.902Z,18.03
2023-05-02T09:35:24.095Z,18.58
2023-05-02T09:37:57.247Z,18.80
2023-05-02T09:40:25.708Z,19.02
2023-05-02T09:42:53.287Z,18.93
2023-05-02T09:45:30.133Z,19.54
2023-05-02T09:48:02.978Z,18.77
2023-05-02T09:50:38.601Z,19.96
2023-05-02T09:53:11.150Z,19.02
2023-05-02T09:55:38.429Z,19.32
2023-05-02T09:58:05.892Z,19.56
2023-05-02T10:00:45.025Z,20.29
2023-05-02T10:03:17.403Z,20.30
2023-05-02T10:05:48.998Z,19.82
2023-05-02T10:08:18.886Z,18.14
2023-05-02T10:10:58.195Z,18.75
2023-05-02T10:13:35.162Z,18.58
2023-05-02T10:16:06.442Z,17.33
2023-05-02T10:19:09.881Z,17.17
2023-05-02T10:21:39.214Z,17.18
2023-05-02T10:24:06.686Z,17.63
2023-05-02T10:26:36.203Z,18.37
2023-05-02T10:29:03.310Z,17.79
2023-05-02T10:31:34.990Z,17.72
2023-05-02T10:34:03.165Z,18.19
2023-05-02T10:36:33.576Z,18.24
2023-05-02T10:39:02.354Z,17.89
2023-05-02T10:41:33.759Z,18.12
2023-05-02T10:44:07.461Z,18.45
2023-05-02T10:46:41.482Z,17.50
2023-05-02T10:49:11.443Z,18.52
2023-05-02T10:51:43.441Z,17.12
2023-05-02T10:54:20.636Z,17.46
2023-05-02T10:57:06.412Z,17.04
2023-05-02T10:59:49.416Z,17.57
2023-05-02T11:02:27.918Z,17.87
2023-05-02T11:05:07.424Z,16.42
2023-05-02T11:07:37.509Z,17.08
2023-05-02T11:10:22.034Z,16.07
2023-05-02T11:13:01.257Z,17.14
2023-05-02T11:15:28.579Z,16.57
2023-05-02T11:18:03.056Z,17.07
2023-05-02T11:20:31.757Z,16.10
2023-05-02T11:23:26.141Z,17.27
2023-05-02T11:26:00.936Z,17.51
2023-05-02T11:28:47.595Z,17.07
2023-05-02T11:31:26.768Z,18.08
2023-05-02T11:34:03.751Z,16.65
2023-05-02T11:36:35.634Z,18.43
2023-05-02T11:39:18.185Z,18.29
2023-05-02T11:41:47.495Z,16.76
2023-05-02T11:44:14.846Z,18.36
2023-05-02T11:46:43.475Z,17.81
2023-05-02T11:49:15.225Z,18.90
2023-05-02T11:51:42.539Z,17.61
2023-05-02T11:54:10.267Z,17.86
2023-05-02T11:56:38.376Z,18.34
2023-05-02T11:59:06.418Z,18.15
2023-05-02T12:01:33.879Z,18.26
2023-05-02T12:04:08.568Z,15.91
2023-05-02T12:06:36.379Z,16.91
2023-05-02T12:09:19.273Z,18.47
2023-05-02T12:11:55.492Z,16.75
2023-05-02T12:14:30.673Z,18.23
2023-05-02T12:16:59.808Z,16.80
2023-05-02T12:19:28.055Z,18.65
2023-05-02T12:21:55.293Z,18.00
2023-05-02T12:24:24.772Z,17.28
2023-05-02T12:27:13.811Z,15.47
2023-05-02T12:29:49.160Z,17.16
2023-05-02T12:32:34.802Z,16.31
2023-05-02T12:35:04.137Z,17.47
2023-05-02T12:37:31.660Z,17.16
2023-05-02T12:39:59.386Z,16.29
2023-05-02T12:42:28.874Z,17.28
2023-05-02T12:45:02.460Z,18.28
2023-05-02T12:47:29.622Z,17.86
2023-05-02T12:49:59.584Z,17.58
2023-05-02T12:52:51.362Z,17.66
2023-05-02T12:55:25.344Z,18.22
2023-05-02T12:58:15.405Z,18.67
2023-05-02T13:00:45.605Z,18.13
2023-05-02T13:03:14.434Z,18.23
2023-05-02T13:05:41.690Z,18.55
2023-05-02T13:08:08.765Z,18.65
2023-05-02T13:10:35.926Z,17.85
2023-05-02T13:13:03.584Z,20.56
2023-05-02T13:15:30.810Z,20.95
2023-05-02T13:18:00.165Z,20.89
2023-05-02T13:20:27.574Z,19.96
2023-05-02T13:23:20.812Z,19.77
2023-05-02T13:25:48.369Z,19.66
2023-05-02T13:28:15.789Z,18.68
2023-05-02T13:30:43.473Z,17.78
2023-05-02T13:33:11.359Z,19.23
2023-05-02T13:35:38.440Z,17.80
2023-05-02T13:38:05.665Z,17.49
2023-05-02T13:40:32.914Z,18.02
2023-05-02T13:43:00.019Z,17.48
2023-05-02T13:45:27.132Z,17.81
2023-05-02T13:47:54.223Z,16.72
2023-05-02T13:50:21.475Z,16.56
2023-05-02T13:52:49.378Z,15.96
2023-05-02T13:55:17.027Z,17.94
2023-05-02T13:57:44.158Z,17.83
2023-05-02T14:00:14.996Z,18.15
2023-05-02T14:02:42.172Z,17.12
2023-05-02T14:05:13.348Z,17.84
2023-05-02T14:07:40.478Z,18.33
2023-05-02T14:10:08.986Z,18.15
2023-05-02T14:12:36.093Z,16.61
2023-05-02T14:15:03.328Z,16.63
2023-05-02T14:17:31.729Z,16.54
2023-05-02T14:19:59.382Z,17.35
2023-05-02T14:22:32.449Z,16.62
2023-05-02T14:24:59.472Z,15.83
2023-05-02T14:27:26.826Z,16.04
2023-05-02T14:29:54.047Z,16.23
2023-05-02T14:32:21.712Z,17.28
2023-05-02T14:34:48.840Z,17.48
2023-05-02T14:37:19.223Z,16.67
2023-05-02T14:39:50.832Z,17.65
2023-05-02T14:42:19.461Z,16.93
2023-05-02T14:44:46.498Z,17.41
2023-05-02T14:47:13.835Z,17.39
2023-05-02T14:49:41.036Z,17.38
2023-05-02T14:52:08.192Z,15.39
2023-05-02T14:54:36.001Z,14.45
2023-05-02T14:57:03.823Z,14.47
2023-05-02T14:59:31.530Z,14.15
2023-05-02T15:01:58.757Z,14.82
2023-05-02T15:04:28.016Z,13.97
2023-05-02T15:06:56.585Z,15.56
2023-05-02T15:09:26.536Z,15.37
2023-05-02T15:11:54.149Z,16.55
2023-05-02T15:14:21.737Z,15.47
2023-05-02T15:16:49.704Z,14.45
2023-05-02T15:19:19.472Z,14.12
2023-05-02T15:21:46.571Z,15.04
2023-05-02T15:24:13.750Z,15.19
2023-05-02T15:26:41.332Z,14.32
2023-05-02T15:29:08.624Z,15.11
2023-05-02T15:31:41.430Z,14.23
2023-05-02T15:34:08.986Z,15.04
2023-05-02T15:36:37.476Z,15.37
2023-05-02T15:39:08.774Z,15.95
2023-05-02T15:41:37.208Z,15.21
2023-05-02T15:44:04.871Z,14.86
2023-05-02T15:46:32.192Z,16.09
2023-05-02T15:48:59.496Z,16.92
2023-05-02T15:51:26.876Z,16.76
2023-05-02T15:53:54.489Z,17.42
2023-05-02T15:56:21.972Z,16.56
2023-05-02T15:58:49.246Z,18.13
2023-05-02T16:01:16.728Z,16.45
2023-05-02T16:03:43.999Z,16.64
2023-05-02T16:06:11.320Z,15.80
2023-05-02T16:08:38.558Z,15.31
2023-05-02T16:11:05.761Z,14.97
2023-05-02T16:13:33.070Z,15.00
2023-05-02T16:16:00.322Z,17.40
2023-05-02T16:18:31.176Z,15.11
2023-05-02T16:20:58.394Z,17.37
2023-05-02T16:23:26.379Z,17.72
2023-05-02T16:26:02.892Z,16.33
2023-05-02T16:28:30.758Z,16.37
2023-05-02T16:30:57.916Z,17.54
2023-05-02T16:33:25.018Z,18.29
2023-05-02T16:36:05.030Z,19.42
2023-05-02T16:38:32.839Z,20.19
2023-05-02T16:41:05.608Z,18.59
2023-05-02T16:43:33.328Z,17.17
2023-05-02T16:46:03.341Z,18.69
2023-05-02T16:48:30.762Z,18.04
2023-05-02T16:50:58.377Z,16.48
2023-05-02T16:53:26.540Z,16.96
2023-05-02T16:55:54.654Z,15.41
2023-05-02T16:58:21.825Z,15.80
2023-05-02T17:00:49.018Z,16.17
2023-05-02T17:03:16.685Z,15.39
2023-05-02T17:05:43.845Z,17.08
2023-05-02T17:08:11.119Z,16.65
2023-05-02T17:10:38.279Z,15.54
2023-05-02T17:13:06.650Z,17.12
2023-05-02T17:15:38.495Z,16.87
2023-05-02T17:18:05.929Z,16.68
2023-05-02T17:20:33.393Z,16.48
2023-05-02T17:23:02.200Z,16.22
2023-05-02T17:25:30.436Z,16.17
2023-05-02T17:27:57.604Z,16.31
2023-05-02T17:30:25.187Z,16.61
2023-05-02T17:32:52.505Z,15.89
2023-05-02T17:35:19.644Z,15.12
2023-05-02T17:37:46.788Z,16.25
2023-05-02T17:40:17.166Z,16.56
2023-05-02T17:42:47.337Z,16.15
2023-05-02T17:45:15.151Z,16.28
2023-05-02T17:47:42.414Z,15.95
2023-05-02T17:50:10.166Z,16.58
2023-05-02T17:52:38.661Z,16.33
2023-05-02T17:55:07.080Z,16.80
2023-05-02T17:57:34.353Z,16.77
2023-05-02T18:00:04.217Z,16.84
2023-05-02T18:02:31.819Z,16.20
2023-05-02T18:07:29.891Z,16.45
2023-05-02T18:09:57.307Z,16.46
2023-05-02T18:12:24.504Z,16.60
2023-05-02T18:14:52.546Z,16.78
2023-05-02T18:17:20.847Z,17.01
2023-05-02T18:19:50.975Z,16.86
2023-05-02T18:22:21.199Z,16.60
2023-05-02T18:24:49.817Z,16.58
2023-05-02T18:27:17.733Z,16.33
2023-05-02T18:29:45.886Z,15.56
2023-05-02T18:32:14.380Z,15.98
2023-05-02T18:34:41.525Z,16.17
2023-05-02T18:37:09.063Z,15.64
2023-05-02T18:39:36.848Z,15.87
2023-05-02T18:42:04.875Z,15.99
2023-05-02T18:44:32.465Z,15.91
2023-05-02T18:46:59.626Z,15.94
2023-05-02T18:49:26.945Z,15.97
2023-05-02T18:51:54.678Z,16.28
2023-05-02T18:54:23.196Z,16.22
2023-05-02T18:56:50.358Z,16.34
2023-05-02T18:59:18.869Z,16.07
2023-05-02T19:01:48.585Z,16.01
2023-05-02T19:04:16.236Z,15.81
2023-05-02T19:06:43.449Z,15.66
2023-05-02T19:09:13.145Z,16.09
2023-05-02T19:11:41.277Z,16.00
2023-05-02T19:14:08.774Z,15.56
2023-05-02T19:16:38.009Z,15.47
2023-05-02T19:19:05.467Z,15.32
2023-05-02T19:21:34.111Z,15.49
2023-05-02T19:24:01.791Z,15.68
2023-05-02T19:26:28.909Z,15.88
2023-05-02T19:28:56.964Z,15.98
2023-05-02T19:31:28.113Z,15.94
2023-05-02T19:33:58.258Z,15.87
2023-05-02T19:36:27.403Z,15.23
2023-05-02T19:38:58.310Z,15.71
2023-05-02T19:41:25.920Z,15.14
2023-05-02T19:43:53.469Z,15.66
2023-05-02T19:46:23.882Z,15.50
2023-05-02T19:48:51.133Z,15.54
2023-05-02T19:51:25.249Z,15.32
2023-05-02T19:53:54.985Z,15.40
2023-05-02T19:56:25.286Z,15.46
2023-05-02T19:58:53.291Z,15.73
2023-05-02T20:01:20.889Z,15.52
2023-05-02T20:03:48.214Z,14.75
2023-05-02T20:06:15.546Z,14.70
2023-05-02T20:08:42.616Z,14.83
2023-05-02T20:11:09.805Z,14.58
2023-05-02T20:13:37.421Z,14.31
2023-05-02T20:16:05.216Z,14.43
2023-05-02T20:18:32.340Z,14.38
2023-05-02T20:20:59.518Z,14.86
2023-05-02T20:23:26.759Z,14.97
2023-05-02T20:25:53.925Z,14.57
2023-05-02T20:28:21.052Z,14.82
2023-05-02T20:30:50.939Z,14.50
2023-05-02T20:33:18.779Z,14.55
2023-05-02T20:35:45.966Z,14.85
2023-05-02T20:38:13.109Z,14.11
2023-05-02T20:40:42.484Z,14.76
2023-05-02T20:43:12.399Z,14.47
2023-05-02T20:45:40.054Z,14.76
2023-05-02T20:48:07.334Z,14.66
2023-05-02T20:50:34.561Z,14.77
2023-05-02T20:53:01.701Z,14.83
2023-05-02T20:55:29.061Z,14.96
2023-05-02T20:57:56.493Z,14.54
2023-05-02T21:00:23.585Z,13.92
2023-05-02T21:02:51.080Z,14.23
2023-05-02T21:05:18.324Z,14.11
2023-05-02T21:07:48.407Z,14.39
2023-05-02T21:10:18.274Z,14.16
2023-05-02T21:12:48.291Z,14.34
2023-05-02T21:15:20.484Z,13.70
2023-05-02T21:17:48.999Z,14.04
2023-05-02T21:20:16.171Z,14.34
2023-05-02T21:22:43.416Z,14.09
2023-05-02T21:25:10.892Z,14.16
2023-05-02T21:27:38.062Z,14.07
2023-05-02T21:30:06.168Z,13.78
2023-05-02T21:32:38.010Z,14.04
2023-05-02T21:35:06.074Z,13.87
2023-05-02T21:37:33.157Z,14.14
2023-05-02T21:40:00.719Z,14.04
2023-05-02T21:42:29.092Z,13.39
2023-05-02T21:44:56.182Z,13.78
2023-05-02T21:47:23.366Z,13.75
2023-05-02T21:49:51.643Z,13.59
2023-05-02T21:52:18.850Z,13.95
2023-05-02T21:54:49.850Z,14.37
2023-05-02T21:57:17.065Z,13.91
2023-05-02T21:59:46.744Z,14.31
2023-05-02T22:02:16.616Z,13.44
2023-05-02T22:04:47.436Z,13.98
2023-05-02T22:07:17.840Z,14.04
2023-05-02T22:09:45.184Z,13.26
2023-05-02T22:12:12.382Z,14.23
2023-05-02T22:14:45.295Z,14.15
2023-05-02T22:17:15.812Z,13.95
2023-05-02T22:19:49.742Z,14.15
2023-05-02T22:22:16.881Z,13.82
2023-05-02T22:24:44.013Z,13.91
2023-05-02T22:27:11.139Z,13.73
2023-05-02T22:29:38.906Z,13.62
2023-05-02T22:32:06.166Z,13.53
2023-05-02T22:34:33.295Z,14.04
2023-05-02T22:37:00.386Z,14.17
2023-05-02T22:39:29.559Z,14.03
2023-05-02T22:41:57.125Z,13.78
2023-05-02T22:44:24.241Z,13.85
2023-05-02T22:46:51.695Z,13.84
2023-05-02T22:49:19.712Z,14.18
2023-05-02T22:51:48.012Z,14.04
2023-05-02T22:54:16.745Z,14.37
2023-05-02T22:56:44.151Z,14.62
2023-05-02T22:59:11.229Z,14.24
2023-05-02T23:01:38.336Z,13.73
2023-05-02T23:04:05.549Z,13.83
2023-05-02T23:06:37.383Z,13.78
2023-05-02T23:09:06.244Z,13.28
2023-05-02T23:11:33.293Z,13.66
2023-05-02T23:14:03.214Z,13.49
2023-05-02T23:16:30.459Z,13.43
2023-05-02T23:18:57.546Z,13.42
2023-05-02T23:21:24.688Z,13.40
2023-05-02T23:23:51.841Z,13.63
2023-05-02T23:26:18.878Z,13.77
2023-05-02T23:28:46.015Z,12.85
2023-05-02T23:31:14.706Z,13.27
2023-05-02T23:33:42.290Z,13.32
2023-05-02T23:36:09.988Z,12.95
2023-05-02T23:38:37.246Z,12.68
2023-05-02T23:41:04.755Z,13.12
2023-05-02T23:43:34.993Z,13.57
2023-05-02T23:46:05.122Z,13.17
2023-05-02T23:48:32.301Z,12.98
2023-05-02T23:50:59.935Z,12.63
2023-05-02T23:53:27.094Z,13.43
2023-05-02T23:55:54.808Z,13.35
2023-05-02T23:58:21.919Z,13.27
